sensor_id;sensor_type;location;lat;lon;timestamp;pressure;altitude;pressure_sealevel;temperature;humidity
39793;BME280;26080;42.264;24.536;2023-04-02T00:04:11;98399.94;;;7.54;100.00
39793;BME280;26080;42.264;24.536;2023-04-02T00:09:15;98396.56;;;7.52;100.00
39793;BME280;26080;42.264;24.536;2023-04-02T00:11:46;98400.94;;;7.51;100.00
39793;BME280;26080;42.264;24.536;2023-04-02T00:16:41;98395.91;;;7.48;100.00
39793;BME280;26080;42.264;24.536;2023-04-02T00:19:13;98388.38;;;7.42;100.00
39793;BME280;26080;42.264;24.536;2023-04-02T00:21:40;98392.88;;;7.38;100.00
39793;BME280;26080;42.264;24.536;2023-04-02T00:24:15;98393.34;;;7.29;100.00
39793;BME280;26080;42.264;24.536;2023-04-02T00:26:45;98389.72;;;7.15;100.00
39793;BME280;26080;42.264;24.536;2023-04-02T00:29:14;98395.72;;;6.98;100.00
39793;BME280;26080;42.264;24.536;2023-04-02T00:31:43;98401.00;;;6.77;100.00
39793;BME280;26080;42.264;24.536;2023-04-02T00:34:17;98395.81;;;6.59;100.00
39793;BME280;26080;42.264;24.536;2023-04-02T00:36:45;98400.16;;;6.39;100.00
39793;BME280;26080;42.264;24.536;2023-04-02T00:39:23;98407.78;;;6.23;100.00
39793;BME280;26080;42.264;24.536;2023-04-02T00:41:52;98368.44;;;5.92;100.00
39793;BME280;26080;42.264;24.536;2023-04-02T00:44:30;98370.00;;;5.96;100.00
39793;BME280;26080;42.264;24.536;2023-04-02T00:47:02;98385.97;;;6.07;100.00
39793;BME280;26080;42.264;24.536;2023-04-02T00:49:35;98404.19;;;6.26;100.00
39793;BME280;26080;42.264;24.536;2023-04-02T00:52:03;98396.16;;;6.32;100.00
39793;BME280;26080;42.264;24.536;2023-04-02T00:54:36;98398.66;;;6.34;100.00
39793;BME280;26080;42.264;24.536;2023-04-02T00:57:03;98390.72;;;6.37;100.00
39793;BME280;26080;42.264;24.536;2023-04-02T00:59:32;98391.50;;;6.39;100.00
39793;BME280;26080;42.264;24.536;2023-04-02T01:02:19;98385.97;;;6.46;100.00
39793;BME280;26080;42.264;24.536;2023-04-02T01:04:53;98389.97;;;6.53;100.00
39793;BME280;26080;42.264;24.536;2023-04-02T01:07:25;98395.81;;;6.59;100.00
39793;BME280;26080;42.264;24.536;2023-04-02T01:10:10;98392.50;;;6.55;100.00
39793;BME280;26080;42.264;24.536;2023-04-02T01:18:15;98387.09;;;6.78;100.00
39793;BME280;26080;42.264;24.536;2023-04-02T01:20:55;98381.56;;;6.84;100.00
39793;BME280;26080;42.264;24.536;2023-04-02T01:24:10;98384.84;;;6.90;100.00
39793;BME280;26080;42.264;24.536;2023-04-02T01:31:27;98371.25;;;6.83;100.00
39793;BME280;26080;42.264;24.536;2023-04-02T01:33:55;98368.31;;;6.72;100.00
39793;BME280;26080;42.264;24.536;2023-04-02T01:39:38;98378.09;;;6.48;100.00
39793;BME280;26080;42.264;24.536;2023-04-02T01:44:58;98366.09;;;6.25;100.00
39793;BME280;26080;42.264;24.536;2023-04-02T01:47:25;98397.53;;;6.39;100.00
39793;BME280;26080;42.264;24.536;2023-04-02T01:50:03;98385.59;;;6.35;100.00
39793;BME280;26080;42.264;24.536;2023-04-02T01:52:40;98406.84;;;6.45;100.00
39793;BME280;26080;42.264;24.536;2023-04-02T01:55:08;98405.28;;;6.41;100.00
39793;BME280;26080;42.264;24.536;2023-04-02T01:57:45;98416.34;;;6.46;100.00
39793;BME280;26080;42.264;24.536;2023-04-02T02:00:13;98426.44;;;6.52;100.00
39793;BME280;26080;42.264;24.536;2023-04-02T02:02:41;98399.31;;;6.39;100.00
39793;BME280;26080;42.264;24.536;2023-04-02T02:05:15;98389.66;;;6.41;100.00
39793;BME280;26080;42.264;24.536;2023-04-02T02:07:42;98418.88;;;6.66;100.00
39793;BME280;26080;42.264;24.536;2023-04-02T02:10:32;98431.66;;;6.71;100.00
39793;BME280;26080;42.264;24.536;2023-04-02T02:12:58;98422.09;;;6.71;100.00
39793;BME280;26080;42.264;24.536;2023-04-02T02:15:25;98398.19;;;6.63;100.00
39793;BME280;26080;42.264;24.536;2023-04-02T02:17:56;98421.84;;;6.77;100.00
39793;BME280;26080;42.264;24.536;2023-04-02T02:20:25;98411.69;;;6.71;100.00
39793;BME280;26080;42.264;24.536;2023-04-02T02:22:52;98376.88;;;6.55;100.00
39793;BME280;26080;42.264;24.536;2023-04-02T02:25:21;98406.78;;;6.65;100.00
39793;BME280;26080;42.264;24.536;2023-04-02T02:30:24;98407.41;;;6.70;100.00
39793;BME280;26080;42.264;24.536;2023-04-02T02:35:51;98413.94;;;6.79;100.00
39793;BME280;26080;42.264;24.536;2023-04-02T02:38:38;98409.03;;;6.73;100.00
39793;BME280;26080;42.264;24.536;2023-04-02T02:41:29;98404.53;;;6.76;100.00
39793;BME280;26080;42.264;24.536;2023-04-02T02:46:33;98405.09;;;7.02;100.00
39793;BME280;26080;42.264;24.536;2023-04-02T02:49:00;98414.09;;;7.13;100.00
39793;BME280;26080;42.264;24.536;2023-04-02T02:51:51;98409.06;;;7.09;100.00
39793;BME280;26080;42.264;24.536;2023-04-02T02:54:18;98405.84;;;7.04;100.00
39793;BME280;26080;42.264;24.536;2023-04-02T02:56:55;98409.56;;;6.98;100.00
39793;BME280;26080;42.264;24.536;2023-04-02T02:59:23;98407.25;;;6.92;100.00
39793;BME280;26080;42.264;24.536;2023-04-02T03:01:48;98412.53;;;6.91;100.00
39793;BME280;26080;42.264;24.536;2023-04-02T03:04:21;98413.66;;;6.85;100.00
39793;BME280;26080;42.264;24.536;2023-04-02T03:06:52;98407.13;;;6.76;100.00
39793;BME280;26080;42.264;24.536;2023-04-02T03:25:29;98416.19;;;6.68;100.00
39793;BME280;26080;42.264;24.536;2023-04-02T03:28:00;98417.75;;;6.72;100.00
39793;BME280;26080;42.264;24.536;2023-04-02T03:30:44;98412.41;;;6.75;100.00
39793;BME280;26080;42.264;24.536;2023-04-02T03:33:27;98420.75;;;6.81;100.00
39793;BME280;26080;42.264;24.536;2023-04-02T03:35:57;98412.13;;;6.81;100.00
39793;BME280;26080;42.264;24.536;2023-04-02T03:38:40;98414.09;;;6.76;100.00
39793;BME280;26080;42.264;24.536;2023-04-02T03:41:39;98422.25;;;6.87;100.00
39793;BME280;26080;42.264;24.536;2023-04-02T03:44:25;98411.84;;;6.68;100.00
39793;BME280;26080;42.264;24.536;2023-04-02T03:47:00;98420.00;;;6.61;100.00
39793;BME280;26080;42.264;24.536;2023-04-02T03:52:12;98424.38;;;6.60;100.00
39793;BME280;26080;42.264;24.536;2023-04-02T03:54:39;98422.72;;;6.58;100.00
39793;BME280;26080;42.264;24.536;2023-04-02T03:57:21;98424.63;;;6.54;100.00
39793;BME280;26080;42.264;24.536;2023-04-02T03:59:50;98423.06;;;6.50;100.00
39793;BME280;26080;42.264;24.536;2023-04-02T04:02:32;98432.72;;;6.48;100.00
39793;BME280;26080;42.264;24.536;2023-04-02T04:04:58;98437.16;;;6.46;100.00
39793;BME280;26080;42.264;24.536;2023-04-02T04:07:39;98430.09;;;6.48;100.00
39793;BME280;26080;42.264;24.536;2023-04-02T04:10:07;98429.34;;;6.46;100.00
39793;BME280;26080;42.264;24.536;2023-04-02T04:12:35;98433.75;;;6.44;100.00
39793;BME280;26080;42.264;24.536;2023-04-02T04:15:21;98424.31;;;6.41;100.00
39793;BME280;26080;42.264;24.536;2023-04-02T04:20:54;98430.72;;;6.34;100.00
39793;BME280;26080;42.264;24.536;2023-04-02T04:26:21;98437.84;;;6.68;100.00
39793;BME280;26080;42.264;24.536;2023-04-02T04:29:26;98431.53;;;6.74;100.00
39793;BME280;26080;42.264;24.536;2023-04-02T04:31:57;98434.78;;;6.79;100.00
39793;BME280;26080;42.264;24.536;2023-04-02T04:34:41;98438.13;;;6.81;100.00
39793;BME280;26080;42.264;24.536;2023-04-02T04:37:20;98442.94;;;6.90;100.00
39793;BME280;26080;42.264;24.536;2023-04-02T04:40:02;98443.38;;;7.00;100.00
39793;BME280;26080;42.264;24.536;2023-04-02T04:42:34;98424.63;;;6.92;100.00
39793;BME280;26080;42.264;24.536;2023-04-02T04:45:22;98456.59;;;7.14;100.00
39793;BME280;26080;42.264;24.536;2023-04-02T04:47:56;98457.75;;;7.26;100.00
39793;BME280;26080;42.264;24.536;2023-04-02T04:50:31;98444.88;;;7.23;100.00
39793;BME280;26080;42.264;24.536;2023-04-02T04:53:13;98451.28;;;7.52;100.00
39793;BME280;26080;42.264;24.536;2023-04-02T04:55:43;98451.53;;;7.64;100.00
39793;BME280;26080;42.264;24.536;2023-04-02T04:58:22;98452.09;;;7.71;100.00
39793;BME280;26080;42.264;24.536;2023-04-02T05:05:51;98460.28;;;7.81;100.00
39793;BME280;26080;42.264;24.536;2023-04-02T05:08:24;98461.31;;;7.95;100.00
39793;BME280;26080;42.264;24.536;2023-04-02T05:10:56;98463.44;;;8.05;100.00
39793;BME280;26080;42.264;24.536;2023-04-02T05:13:29;98444.13;;;8.09;100.00
39793;BME280;26080;42.264;24.536;2023-04-02T05:18:44;98472.34;;;8.35;100.00
39793;BME280;26080;42.264;24.536;2023-04-02T05:26:41;98473.06;;;8.72;100.00
39793;BME280;26080;42.264;24.536;2023-04-02T05:29:19;98444.22;;;8.57;100.00
39793;BME280;26080;42.264;24.536;2023-04-02T05:34:29;98486.59;;;8.96;100.00
39793;BME280;26080;42.264;24.536;2023-04-02T05:36:56;98485.94;;;9.24;100.00
39793;BME280;26080;42.264;24.536;2023-04-02T05:39:24;98483.97;;;9.43;100.00
39793;BME280;26080;42.264;24.536;2023-04-02T05:42:02;98494.00;;;9.66;100.00
39793;BME280;26080;42.264;24.536;2023-04-02T05:44:33;98485.53;;;9.93;100.00
39793;BME280;26080;42.264;24.536;2023-04-02T05:47:05;98475.47;;;10.01;100.00
39793;BME280;26080;42.264;24.536;2023-04-02T05:52:29;98496.50;;;10.29;100.00
39793;BME280;26080;42.264;24.536;2023-04-02T05:55:18;98503.25;;;10.48;100.00
39793;BME280;26080;42.264;24.536;2023-04-02T05:57:51;98502.31;;;10.49;100.00
39793;BME280;26080;42.264;24.536;2023-04-02T06:00:19;98509.25;;;10.50;100.00
39793;BME280;26080;42.264;24.536;2023-04-02T06:02:53;98508.66;;;10.30;100.00
39793;BME280;26080;42.264;24.536;2023-04-02T06:05:34;98510.44;;;10.30;100.00
39793;BME280;26080;42.264;24.536;2023-04-02T06:08:08;98505.84;;;10.33;100.00
39793;BME280;26080;42.264;24.536;2023-04-02T06:10:43;98510.34;;;10.31;100.00
39793;BME280;26080;42.264;24.536;2023-04-02T06:13:15;98502.91;;;10.24;100.00
39793;BME280;26080;42.264;24.536;2023-04-02T06:15:42;98504.34;;;10.29;100.00
39793;BME280;26080;42.264;24.536;2023-04-02T06:18:15;98520.25;;;10.41;100.00
39793;BME280;26080;42.264;24.536;2023-04-02T06:20:46;98503.69;;;10.40;100.00
39793;BME280;26080;42.264;24.536;2023-04-02T06:23:37;98518.13;;;10.47;100.00
39793;BME280;26080;42.264;24.536;2023-04-02T06:29:17;98528.50;;;10.49;100.00
39793;BME280;26080;42.264;24.536;2023-04-02T06:31:49;98520.28;;;10.55;100.00
39793;BME280;26080;42.264;24.536;2023-04-02T06:34:21;98497.00;;;10.50;100.00
39793;BME280;26080;42.264;24.536;2023-04-02T06:36:49;98527.16;;;10.72;100.00
39793;BME280;26080;42.264;24.536;2023-04-02T06:39:23;98519.75;;;10.78;100.00
39793;BME280;26080;42.264;24.536;2023-04-02T06:42:12;98527.41;;;10.81;100.00
39793;BME280;26080;42.264;24.536;2023-04-02T06:44:38;98520.69;;;10.77;100.00
39793;BME280;26080;42.264;24.536;2023-04-02T06:52:00;98527.41;;;11.10;100.00
39793;BME280;26080;42.264;24.536;2023-04-02T06:54:26;98511.25;;;11.03;100.00
39793;BME280;26080;42.264;24.536;2023-04-02T06:56:53;98536.41;;;11.20;100.00
39793;BME280;26080;42.264;24.536;2023-04-02T06:59:20;98532.66;;;11.24;100.00
39793;BME280;26080;42.264;24.536;2023-04-02T07:01:56;98541.09;;;11.15;100.00
39793;BME280;26080;42.264;24.536;2023-04-02T07:04:23;98546.88;;;11.20;100.00
39793;BME280;26080;42.264;24.536;2023-04-02T07:06:49;98548.84;;;11.16;100.00
39793;BME280;26080;42.264;24.536;2023-04-02T07:09:15;98515.63;;;11.03;100.00
39793;BME280;26080;42.264;24.536;2023-04-02T07:11:41;98543.50;;;11.18;100.00
39793;BME280;26080;42.264;24.536;2023-04-02T07:14:10;98549.16;;;11.12;100.00
39793;BME280;26080;42.264;24.536;2023-04-02T07:16:36;98538.75;;;11.10;100.00
39793;BME280;26080;42.264;24.536;2023-04-02T07:19:02;98552.41;;;11.15;100.00
39793;BME280;26080;42.264;24.536;2023-04-02T07:21:29;98544.75;;;11.26;100.00
39793;BME280;26080;42.264;24.536;2023-04-02T07:23:55;98545.56;;;11.41;100.00
39793;BME280;26080;42.264;24.536;2023-04-02T07:26:24;98548.59;;;11.62;100.00
39793;BME280;26080;42.264;24.536;2023-04-02T07:28:54;98542.78;;;11.71;100.00
39793;BME280;26080;42.264;24.536;2023-04-02T07:31:23;98548.44;;;11.92;100.00
39793;BME280;26080;42.264;24.536;2023-04-02T07:33:50;98546.22;;;12.13;100.00
39793;BME280;26080;42.264;24.536;2023-04-02T07:36:19;98546.59;;;12.34;100.00
39793;BME280;26080;42.264;24.536;2023-04-02T07:38:45;98552.38;;;12.39;100.00
39793;BME280;26080;42.264;24.536;2023-04-02T07:41:11;98547.78;;;12.55;100.00
39793;BME280;26080;42.264;24.536;2023-04-02T07:43:37;98538.56;;;12.62;100.00
39793;BME280;26080;42.264;24.536;2023-04-02T07:46:03;98544.66;;;12.75;100.00
39793;BME280;26080;42.264;24.536;2023-04-02T07:48:29;98542.34;;;12.84;100.00
39793;BME280;26080;42.264;24.536;2023-04-02T07:50:55;98527.94;;;13.02;98.81
39793;BME280;26080;42.264;24.536;2023-04-02T07:53:33;98530.75;;;13.12;99.31
39793;BME280;26080;42.264;24.536;2023-04-02T07:56:00;98519.63;;;13.21;93.80
39793;BME280;26080;42.264;24.536;2023-04-02T07:58:28;98524.56;;;13.25;93.10
39793;BME280;26080;42.264;24.536;2023-04-02T08:00:54;98523.50;;;13.28;92.93
39793;BME280;26080;42.264;24.536;2023-04-02T08:03:19;98526.31;;;13.38;92.77
39793;BME280;26080;42.264;24.536;2023-04-02T08:05:54;98521.66;;;13.54;90.00
39793;BME280;26080;42.264;24.536;2023-04-02T08:08:21;98529.84;;;13.62;89.18
39793;BME280;26080;42.264;24.536;2023-04-02T08:10:47;98517.72;;;13.72;84.64
39793;BME280;26080;42.264;24.536;2023-04-02T08:13:13;98510.44;;;13.76;88.20
39793;BME280;26080;42.264;24.536;2023-04-02T08:15:40;98520.69;;;13.91;86.70
39793;BME280;26080;42.264;24.536;2023-04-02T08:18:05;98510.09;;;14.04;82.25
39793;BME280;26080;42.264;24.536;2023-04-02T08:20:31;98509.63;;;14.10;82.43
39793;BME280;26080;42.264;24.536;2023-04-02T08:22:57;98511.81;;;14.16;80.65
39793;BME280;26080;42.264;24.536;2023-04-02T08:25:23;98512.41;;;14.20;82.12
39793;BME280;26080;42.264;24.536;2023-04-02T08:27:49;98506.19;;;14.21;79.67
39793;BME280;26080;42.264;24.536;2023-04-02T08:30:16;98510.25;;;14.25;82.82
39793;BME280;26080;42.264;24.536;2023-04-02T08:32:42;98502.16;;;14.28;80.09
39793;BME280;26080;42.264;24.536;2023-04-02T08:35:10;98496.19;;;14.37;81.01
39793;BME280;26080;42.264;24.536;2023-04-02T08:37:36;98497.19;;;14.47;79.08
39793;BME280;26080;42.264;24.536;2023-04-02T08:40:03;98490.66;;;14.53;77.63
39793;BME280;26080;42.264;24.536;2023-04-02T08:42:43;98489.34;;;14.70;77.00
39793;BME280;26080;42.264;24.536;2023-04-02T08:47:53;98484.31;;;14.67;73.76
39793;BME280;26080;42.264;24.536;2023-04-02T08:50:36;98499.19;;;14.90;75.16
39793;BME280;26080;42.264;24.536;2023-04-02T08:53:08;98498.72;;;14.96;77.73
39793;BME280;26080;42.264;24.536;2023-04-02T09:00:53;98482.50;;;15.34;71.11
39793;BME280;26080;42.264;24.536;2023-04-02T09:05:52;98473.72;;;15.56;72.65
39793;BME280;26080;42.264;24.536;2023-04-02T09:08:24;98475.84;;;15.74;69.85
39793;BME280;26080;42.264;24.536;2023-04-02T09:13:29;98455.53;;;15.85;62.78
39793;BME280;26080;42.264;24.536;2023-04-02T09:16:02;98433.81;;;15.82;64.47
39793;BME280;26080;42.264;24.536;2023-04-02T09:18:31;98443.00;;;16.19;58.40
39793;BME280;26080;42.264;24.536;2023-04-02T09:20:57;98436.06;;;16.18;56.62
39793;BME280;26080;42.264;24.536;2023-04-02T09:23:26;98421.91;;;16.29;54.99
39793;BME280;26080;42.264;24.536;2023-04-02T09:25:52;98433.72;;;16.46;54.71
39793;BME280;26080;42.264;24.536;2023-04-02T09:28:18;98423.41;;;16.43;52.91
39793;BME280;26080;42.264;24.536;2023-04-02T09:31:15;98430.13;;;16.47;52.69
39793;BME280;26080;42.264;24.536;2023-04-02T09:33:49;98423.78;;;16.59;49.38
39793;BME280;26080;42.264;24.536;2023-04-02T09:38:58;98423.47;;;16.73;52.61
39793;BME280;26080;42.264;24.536;2023-04-02T09:41:27;98432.81;;;16.77;51.21
39793;BME280;26080;42.264;24.536;2023-04-02T09:44:20;98423.91;;;16.78;52.47
39793;BME280;26080;42.264;24.536;2023-04-02T09:49:26;98409.06;;;16.97;49.60
39793;BME280;26080;42.264;24.536;2023-04-02T09:54:47;98385.72;;;17.02;50.78
39793;BME280;26080;42.264;24.536;2023-04-02T09:57:30;98375.56;;;17.07;46.79
39793;BME280;26080;42.264;24.536;2023-04-02T10:02:40;98407.66;;;17.42;45.57
39793;BME280;26080;42.264;24.536;2023-04-02T10:05:16;98387.03;;;17.36;48.70
39793;BME280;26080;42.264;24.536;2023-04-02T10:07:45;98404.72;;;17.45;49.70
39793;BME280;26080;42.264;24.536;2023-04-02T10:13:02;98403.03;;;17.35;49.92
39793;BME280;26080;42.264;24.536;2023-04-02T10:18:35;98402.34;;;17.52;50.60
39793;BME280;26080;42.264;24.536;2023-04-02T10:21:04;98408.78;;;17.50;50.22
39793;BME280;26080;42.264;24.536;2023-04-02T10:23:31;98402.09;;;17.65;48.12
39793;BME280;26080;42.264;24.536;2023-04-02T10:31:57;98392.94;;;17.69;48.00
39793;BME280;26080;42.264;24.536;2023-04-02T10:34:42;98393.50;;;17.82;49.43
39793;BME280;26080;42.264;24.536;2023-04-02T10:40:08;98380.63;;;17.48;46.83
39793;BME280;26080;42.264;24.536;2023-04-02T10:42:43;98382.00;;;17.33;47.04
39793;BME280;26080;42.264;24.536;2023-04-02T10:52:53;98382.66;;;17.06;46.57
39793;BME280;26080;42.264;24.536;2023-04-02T10:55:28;98366.78;;;17.06;45.99
39793;BME280;26080;42.264;24.536;2023-04-02T10:57:56;98372.63;;;17.10;47.51
39793;BME280;26080;42.264;24.536;2023-04-02T11:00:26;98344.06;;;16.94;46.39
39793;BME280;26080;42.264;24.536;2023-04-02T11:05:29;98364.97;;;17.07;45.06
39793;BME280;26080;42.264;24.536;2023-04-02T11:08:08;98365.25;;;17.04;44.60
39793;BME280;26080;42.264;24.536;2023-04-02T11:10:37;98353.75;;;17.43;48.96
39793;BME280;26080;42.264;24.536;2023-04-02T11:15:37;98361.72;;;17.82;46.11
39793;BME280;26080;42.264;24.536;2023-04-02T11:18:03;98360.03;;;17.81;45.87
39793;BME280;26080;42.264;24.536;2023-04-02T11:23:12;98358.66;;;17.77;45.80
39793;BME280;26080;42.264;24.536;2023-04-02T11:25:40;98363.66;;;17.90;45.85
39793;BME280;26080;42.264;24.536;2023-04-02T11:28:27;98350.56;;;17.88;46.18
39793;BME280;26080;42.264;24.536;2023-04-02T11:30:53;98350.25;;;18.01;43.63
39793;BME280;26080;42.264;24.536;2023-04-02T11:33:37;98342.78;;;18.33;44.72
39793;BME280;26080;42.264;24.536;2023-04-02T11:36:26;98342.50;;;18.37;43.66
39793;BME280;26080;42.264;24.536;2023-04-02T11:38:50;98328.63;;;18.52;45.46
39793;BME280;26080;42.264;24.536;2023-04-02T11:42:13;98336.91;;;18.77;43.98
39793;BME280;26080;42.264;24.536;2023-04-02T11:47:32;98334.47;;;18.56;42.21
39793;BME280;26080;42.264;24.536;2023-04-02T11:49:59;98333.88;;;18.62;43.77
39793;BME280;26080;42.264;24.536;2023-04-02T11:55:32;98303.47;;;18.56;42.13
39793;BME280;26080;42.264;24.536;2023-04-02T12:11:49;98325.38;;;19.31;44.68
39793;BME280;26080;42.264;24.536;2023-04-02T12:17:04;98311.75;;;19.26;43.42
39793;BME280;26080;42.264;24.536;2023-04-02T12:19:30;98279.72;;;18.92;42.94
39793;BME280;26080;42.264;24.536;2023-04-02T12:21:57;98303.09;;;19.06;44.43
39793;BME280;26080;42.264;24.536;2023-04-02T12:24:24;98307.09;;;19.10;44.17
39793;BME280;26080;42.264;24.536;2023-04-02T12:27:17;98295.81;;;19.08;43.89
39793;BME280;26080;42.264;24.536;2023-04-02T12:29:47;98289.28;;;19.03;44.85
39793;BME280;26080;42.264;24.536;2023-04-02T12:32:27;98309.91;;;19.27;44.06
39793;BME280;26080;42.264;24.536;2023-04-02T12:34:55;98306.53;;;19.34;45.41
39793;BME280;26080;42.264;24.536;2023-04-02T12:37:27;98278.75;;;19.11;42.87
39793;BME280;26080;42.264;24.536;2023-04-02T12:39:55;98296.44;;;19.20;44.68
39793;BME280;26080;42.264;24.536;2023-04-02T12:42:31;98284.63;;;18.87;44.37
39793;BME280;26080;42.264;24.536;2023-04-02T12:44:57;98298.00;;;18.95;46.40
39793;BME280;26080;42.264;24.536;2023-04-02T12:47:23;98298.31;;;18.92;45.68
39793;BME280;26080;42.264;24.536;2023-04-02T12:49:49;98304.22;;;19.04;45.11
39793;BME280;26080;42.264;24.536;2023-04-02T12:52:18;98284.59;;;18.97;44.77
39793;BME280;26080;42.264;24.536;2023-04-02T12:54:50;98290.34;;;19.10;45.46
39793;BME280;26080;42.264;24.536;2023-04-02T12:59:52;98281.41;;;19.11;43.78
39793;BME280;26080;42.264;24.536;2023-04-02T13:04:50;98291.66;;;19.06;46.06
39793;BME280;26080;42.264;24.536;2023-04-02T13:09:58;98279.28;;;19.14;43.63
39793;BME280;26080;42.264;24.536;2023-04-02T13:12:37;98278.44;;;19.32;44.23
39793;BME280;26080;42.264;24.536;2023-04-02T13:15:24;98266.38;;;19.37;44.18
39793;BME280;26080;42.264;24.536;2023-04-02T13:20:39;98283.91;;;19.12;42.16
39793;BME280;26080;42.264;24.536;2023-04-02T13:25:49;98268.06;;;19.38;41.83
39793;BME280;26080;42.264;24.536;2023-04-02T13:28:15;98272.31;;;19.49;42.09
39793;BME280;26080;42.264;24.536;2023-04-02T13:30:41;98275.47;;;19.52;41.30
39793;BME280;26080;42.264;24.536;2023-04-02T13:33:06;98292.25;;;19.53;40.42
39793;BME280;26080;42.264;24.536;2023-04-02T13:35:32;98275.56;;;19.43;40.95
39793;BME280;26080;42.264;24.536;2023-04-02T13:37:58;98266.22;;;19.57;40.65
39793;BME280;26080;42.264;24.536;2023-04-02T13:40:27;98279.50;;;19.57;40.22
39793;BME280;26080;42.264;24.536;2023-04-02T13:42:52;98274.78;;;19.50;41.18
39793;BME280;26080;42.264;24.536;2023-04-02T13:45:24;98269.34;;;19.52;40.25
39793;BME280;26080;42.264;24.536;2023-04-02T13:47:50;98264.34;;;19.49;39.32
39793;BME280;26080;42.264;24.536;2023-04-02T13:50:18;98262.03;;;19.54;40.16
39793;BME280;26080;42.264;24.536;2023-04-02T13:52:44;98266.22;;;19.39;40.97
39793;BME280;26080;42.264;24.536;2023-04-02T13:55:11;98257.06;;;19.15;41.49
39793;BME280;26080;42.264;24.536;2023-04-02T13:57:37;98268.88;;;19.03;41.78
39793;BME280;26080;42.264;24.536;2023-04-02T14:00:03;98275.94;;;18.94;41.08
39793;BME280;26080;42.264;24.536;2023-04-02T14:02:30;98258.78;;;18.89;41.37
39793;BME280;26080;42.264;24.536;2023-04-02T14:31:13;98262.13;;;19.27;37.47
39793;BME280;26080;42.264;24.536;2023-04-02T14:41:44;98257.19;;;19.67;35.62
39793;BME280;26080;42.264;24.536;2023-04-02T14:44:14;98265.78;;;19.87;34.43
39793;BME280;26080;42.264;24.536;2023-04-02T14:46:42;98249.84;;;19.87;34.62
39793;BME280;26080;42.264;24.536;2023-04-02T14:49:31;98250.63;;;19.79;35.52
39793;BME280;26080;42.264;24.536;2023-04-02T14:52:04;98257.09;;;19.77;35.29
39793;BME280;26080;42.264;24.536;2023-04-02T14:54:47;98254.53;;;19.49;35.32
39793;BME280;26080;42.264;24.536;2023-04-02T14:57:24;98254.53;;;19.32;35.20
39793;BME280;26080;42.264;24.536;2023-04-02T15:02:45;98263.56;;;19.03;36.44
39793;BME280;26080;42.264;24.536;2023-04-02T15:05:23;98266.16;;;18.95;36.46
39793;BME280;26080;42.264;24.536;2023-04-02T15:16:26;98273.88;;;18.61;37.15
39793;BME280;26080;42.264;24.536;2023-04-02T15:18:55;98278.25;;;18.52;37.85
39793;BME280;26080;42.264;24.536;2023-04-02T15:38:11;98303.13;;;18.04;42.86
39793;BME280;26080;42.264;24.536;2023-04-02T15:43:47;98299.16;;;17.71;43.11
39793;BME280;26080;42.264;24.536;2023-04-02T15:52:07;98312.09;;;17.45;44.28
39793;BME280;26080;42.264;24.536;2023-04-02T16:00:20;98315.72;;;17.35;44.75
39793;BME280;26080;42.264;24.536;2023-04-02T16:08:43;98327.69;;;17.20;45.13
39793;BME280;26080;42.264;24.536;2023-04-02T16:11:14;98323.38;;;17.18;46.18
39793;BME280;26080;42.264;24.536;2023-04-02T16:13:41;98320.28;;;17.04;46.36
39793;BME280;26080;42.264;24.536;2023-04-02T16:16:18;98326.09;;;16.98;46.65
39793;BME280;26080;42.264;24.536;2023-04-02T16:21:56;98332.75;;;16.82;47.03
39793;BME280;26080;42.264;24.536;2023-04-02T16:24:25;98331.22;;;16.80;47.04
39793;BME280;26080;42.264;24.536;2023-04-02T16:26:58;98333.31;;;16.76;47.57
39793;BME280;26080;42.264;24.536;2023-04-02T16:57:23;98345.91;;;15.38;51.55
39793;BME280;26080;42.264;24.536;2023-04-02T17:00:06;98353.19;;;15.14;52.73
39793;BME280;26080;42.264;24.536;2023-04-02T17:07:51;98368.13;;;14.59;54.71
39793;BME280;26080;42.264;24.536;2023-04-02T17:13:01;98371.44;;;14.27;55.89
39793;BME280;26080;42.264;24.536;2023-04-02T17:15:35;98373.44;;;14.12;56.50
39793;BME280;26080;42.264;24.536;2023-04-02T17:18:10;98371.13;;;13.97;56.46
39793;BME280;26080;42.264;24.536;2023-04-02T17:20:38;98374.72;;;13.84;56.27
39793;BME280;26080;42.264;24.536;2023-04-02T17:23:04;98354.75;;;13.58;56.11
39793;BME280;26080;42.264;24.536;2023-04-02T17:25:34;98387.78;;;13.62;57.24
39793;BME280;26080;42.264;24.536;2023-04-02T17:28:01;98378.44;;;13.34;58.25
39793;BME280;26080;42.264;24.536;2023-04-02T17:30:36;98400.97;;;13.25;59.92
39793;BME280;26080;42.264;24.536;2023-04-02T17:33:10;98409.09;;;13.10;61.07
39793;BME280;26080;42.264;24.536;2023-04-02T17:38:23;98421.03;;;12.90;62.96
39793;BME280;26080;42.264;24.536;2023-04-02T18:13:41;98463.31;;;12.61;65.85
39793;BME280;26080;42.264;24.536;2023-04-02T18:34:36;98485.81;;;12.00;66.61
39793;BME280;26080;42.264;24.536;2023-04-02T18:45:48;98490.75;;;12.05;68.97
39793;BME280;26080;42.264;24.536;2023-04-02T18:51:24;98501.31;;;12.30;68.31
39793;BME280;26080;42.264;24.536;2023-04-02T18:54:05;98509.66;;;12.62;69.52
39793;BME280;26080;42.264;24.536;2023-04-02T18:56:38;98508.72;;;12.76;69.14
39793;BME280;26080;42.264;24.536;2023-04-02T18:59:27;98490.50;;;12.73;69.47
39793;BME280;26080;42.264;24.536;2023-04-02T19:01:56;98512.47;;;12.97;69.33
39793;BME280;26080;42.264;24.536;2023-04-02T19:04:33;98515.53;;;13.04;68.33
39793;BME280;26080;42.264;24.536;2023-04-02T19:07:20;98506.97;;;13.13;67.60
39793;BME280;26080;42.264;24.536;2023-04-02T19:09:47;98512.13;;;13.15;67.92
39793;BME280;26080;42.264;24.536;2023-04-02T19:12:17;98518.34;;;13.14;67.87
39793;BME280;26080;42.264;24.536;2023-04-02T19:14:44;98522.97;;;13.10;67.83